Time;durP1;ratioP1;P1;durP2;ratioP2;P2;SDS_P1;SDS_P2;PMS_P1;PMS_P2;Temp;Humidity;BMP_temperature;BMP_pressure;BME280_temperature;BME280_humidity;BME280_pressure;Samples;Min_cycle;Max_cycle;Signal;HPM_P1;HPM_P2
2021/12/09 00:01:01;;;;;;;7.35;2.30;;;3.40;99.90;;;;;;7307626;32;20141;-76
2021/12/09 00:05:05;;;;;;;9.10;2.40;;;3.50;99.90;;;;;;7317274;32;20465;-76
2021/12/09 00:09:12;;;;;;;13.07;3.58;;;3.60;99.90;;;;;;7314345;32;20581;-77
2021/12/09 00:13:14;;;;;;;9.80;2.70;;;3.60;99.90;;;;;;7319911;32;20194;-77
2021/12/09 00:17:16;;;;;;;10.23;3.15;;;3.50;99.90;;;;;;7310817;32;20781;-76
2021/12/09 00:21:18;;;;;;;7.30;3.03;;;3.40;99.90;;;;;;7323907;32;20615;-76
2021/12/09 00:25:20;;;;;;;10.45;2.92;;;3.30;99.90;;;;;;7316936;32;20149;-76
2021/12/09 00:29:23;;;;;;;7.57;2.70;;;3.20;99.90;;;;;;7323353;32;20131;-76
2021/12/09 00:33:25;;;;;;;10.63;2.97;;;3.20;99.90;;;;;;7302241;32;20545;-76
2021/12/09 00:37:34;;;;;;;8.85;3.05;;;3.10;99.90;;;;;;7307563;32;20769;-77
2021/12/09 00:41:36;;;;;;;7.78;3.25;;;3.00;99.90;;;;;;7315560;32;20112;-76
2021/12/09 00:45:39;;;;;;;11.50;3.58;;;2.90;99.90;;;;;;7314464;32;20130;-76
2021/12/09 00:49:41;;;;;;;10.07;3.05;;;2.90;99.90;;;;;;7320869;32;20490;-78
2021/12/09 00:53:43;;;;;;;9.80;3.17;;;2.90;99.90;;;;;;7312378;32;20133;-76
2021/12/09 00:57:46;;;;;;;7.15;2.87;;;2.80;99.90;;;;;;7313686;32;20642;-77
2021/12/09 01:01:48;;;;;;;6.45;3.12;;;2.80;99.90;;;;;;7312516;32;20660;-76
2021/12/09 01:05:50;;;;;;;8.75;3.42;;;2.70;99.90;;;;;;7300483;32;20391;-76
2021/12/09 01:10:15;;;;;;;6.93;3.45;;;2.80;99.90;;;;;;7320684;32;20141;-77
2021/12/09 01:14:16;;;;;;;10.60;3.70;;;2.80;99.90;;;;;;7309616;32;20125;-76
2021/12/09 01:18:18;;;;;;;10.07;3.20;;;2.70;99.90;;;;;;7317772;32;20207;-76
2021/12/09 01:22:26;;;;;;;7.97;3.00;;;2.80;99.90;;;;;;7318693;32;20180;-76
2021/12/09 01:26:29;;;;;;;8.05;3.28;;;2.80;99.90;;;;;;7311052;32;20203;-77
2021/12/09 01:30:32;;;;;;;8.63;3.20;;;2.90;99.90;;;;;;7312715;32;20116;-76
2021/12/09 01:34:36;;;;;;;10.65;3.28;;;2.90;99.90;;;;;;7320110;32;20130;-74
2021/12/09 01:38:38;;;;;;;8.52;3.00;;;2.80;99.90;;;;;;7323305;32;20236;-74
2021/12/09 01:42:42;;;;;;;13.60;3.30;;;2.70;99.90;;;;;;7313488;32;20122;-75
2021/12/09 01:46:44;;;;;;;13.75;3.28;;;2.70;99.90;;;;;;7320621;32;20107;-74
2021/12/09 01:50:46;;;;;;;10.48;3.12;;;2.70;99.90;;;;;;7306948;32;20161;-74
2021/12/09 01:54:48;;;;;;;8.88;3.62;;;2.60;99.90;;;;;;7313190;32;20250;-74
2021/12/09 01:58:52;;;;;;;6.12;3.25;;;2.60;99.90;;;;;;7321606;32;20180;-74
2021/12/09 02:02:54;;;;;;;9.07;3.50;;;2.60;99.90;;;;;;7317015;32;20179;-74
2021/12/09 02:07:00;;;;;;;14.38;3.80;;;2.70;99.90;;;;;;7304187;32;20570;-74
2021/12/09 02:11:02;;;;;;;10.07;3.30;;;2.70;99.90;;;;;;7314129;32;20611;-74
2021/12/09 02:15:04;;;;;;;11.82;3.92;;;2.60;99.90;;;;;;7316627;32;20214;-74
2021/12/09 02:19:10;;;;;;;9.35;3.65;;;2.60;99.90;;;;;;7308950;32;20115;-74
2021/12/09 02:23:15;;;;;;;9.73;3.53;;;2.50;99.90;;;;;;7319907;32;20108;-75
2021/12/09 02:27:17;;;;;;;11.27;3.50;;;2.40;99.90;;;;;;7317306;32;20134;-74
2021/12/09 02:31:20;;;;;;;8.73;3.65;;;2.20;99.90;;;;;;7319147;32;20237;-74
2021/12/09 02:35:22;;;;;;;8.82;4.28;;;2.20;99.90;;;;;;7314858;32;20116;-75
2021/12/09 02:39:24;;;;;;;9.10;4.05;;;2.20;99.90;;;;;;7319198;32;20250;-77
2021/12/09 02:43:28;;;;;;;13.05;3.65;;;2.00;99.90;;;;;;7322039;32;20119;-76
2021/12/09 02:47:30;;;;;;;8.98;3.83;;;1.90;99.90;;;;;;7314396;32;20697;-75
2021/12/09 02:51:33;;;;;;;13.00;3.80;;;1.90;99.90;;;;;;7307292;32;20576;-75
2021/12/09 02:55:34;;;;;;;9.13;3.70;;;1.80;99.90;;;;;;7314384;32;20265;-75
2021/12/09 02:59:36;;;;;;;7.82;3.58;;;1.80;99.90;;;;;;7323873;32;20140;-75
2021/12/09 03:03:46;;;;;;;7.78;3.62;;;1.60;99.90;;;;;;7310079;32;20313;-75
2021/12/09 03:07:48;;;;;;;12.50;3.80;;;1.60;99.90;;;;;;7323272;32;20269;-75
2021/12/09 03:11:54;;;;;;;10.80;4.32;;;1.60;99.90;;;;;;7307468;32;20452;-75
2021/12/09 03:15:56;;;;;;;7.87;3.58;;;1.60;99.90;;;;;;7311952;32;20702;-75
2021/12/09 03:19:58;;;;;;;9.93;3.67;;;1.50;99.90;;;;;;7318296;32;20214;-76
2021/12/09 03:24:03;;;;;;;7.00;3.25;;;1.50;99.90;;;;;;7318761;32;20498;-75
2021/12/09 03:28:04;;;;;;;8.93;3.42;;;1.40;99.90;;;;;;7325594;32;20473;-75
2021/12/09 03:32:11;;;;;;;6.07;3.37;;;1.30;99.90;;;;;;7319425;32;20137;-74
2021/12/09 03:36:12;;;;;;;9.93;3.53;;;1.30;99.90;;;;;;7313192;32;20218;-75
2021/12/09 03:40:15;;;;;;;10.80;3.53;;;1.40;99.90;;;;;;7307095;32;20167;-74
2021/12/09 03:44:17;;;;;;;12.07;3.53;;;1.40;99.90;;;;;;7319082;32;20129;-75
2021/12/09 03:48:19;;;;;;;12.02;3.47;;;1.40;99.90;;;;;;7313852;32;20216;-75
2021/12/09 03:52:21;;;;;;;10.38;3.85;;;1.30;99.90;;;;;;7304106;32;20610;-75
2021/12/09 03:56:23;;;;;;;7.18;3.08;;;1.30;99.90;;;;;;7313677;32;20332;-76
2021/12/09 04:00:28;;;;;;;8.48;3.65;;;1.30;99.90;;;;;;7311101;32;20246;-75
2021/12/09 04:04:30;;;;;;;13.27;3.30;;;1.30;99.90;;;;;;7309316;32;20680;-75
2021/12/09 04:08:33;;;;;;;11.10;4.10;;;1.30;99.90;;;;;;7320987;32;20539;-75
2021/12/09 04:12:35;;;;;;;9.95;3.30;;;1.30;99.90;;;;;;7313915;32;20120;-77
2021/12/09 04:16:38;;;;;;;13.02;3.20;;;1.30;99.90;;;;;;7319472;32;20465;-75
2021/12/09 04:20:40;;;;;;;11.88;3.28;;;1.20;99.90;;;;;;7318241;32;20265;-75
2021/12/09 04:24:42;;;;;;;5.55;2.75;;;1.20;99.90;;;;;;7308808;32;20715;-75
2021/12/09 04:28:45;;;;;;;7.53;3.22;;;1.30;99.90;;;;;;7307792;32;20191;-75
2021/12/09 04:32:47;;;;;;;12.30;3.62;;;1.30;99.90;;;;;;7319573;32;20170;-75
2021/12/09 04:36:49;;;;;;;8.73;2.58;;;1.30;99.90;;;;;;7313000;32;20218;-75
2021/12/09 04:40:51;;;;;;;8.98;3.08;;;1.30;99.90;;;;;;7311655;32;20120;-75
2021/12/09 04:44:54;;;;;;;9.32;3.33;;;1.30;99.90;;;;;;7318717;32;20242;-76
2021/12/09 04:48:56;;;;;;;13.15;4.15;;;1.40;99.90;;;;;;7316358;32;20179;-75
2021/12/09 04:52:58;;;;;;;9.07;3.35;;;1.40;99.90;;;;;;7317368;32;20244;-74
2021/12/09 04:57:00;;;;;;;8.60;2.83;;;1.50;99.90;;;;;;7314981;32;20617;-75
2021/12/09 05:01:04;;;;;;;6.55;2.55;;;1.40;99.90;;;;;;7296968;32;20107;-75
2021/12/09 05:05:06;;;;;;;9.88;3.12;;;1.40;99.90;;;;;;7315114;32;20478;-76
2021/12/09 05:09:15;;;;;;;6.70;2.72;;;1.30;99.90;;;;;;7322219;32;20135;-75
2021/12/09 05:13:18;;;;;;;5.07;2.72;;;1.40;99.90;;;;;;7319273;32;20196;-75
2021/12/09 05:17:21;;;;;;;11.05;3.05;;;1.40;99.90;;;;;;7305918;32;20200;-75
2021/12/09 05:21:24;;;;;;;9.98;3.12;;;1.40;99.90;;;;;;7301880;32;20746;-75
2021/12/09 05:25:26;;;;;;;9.77;3.00;;;1.40;99.90;;;;;;7321510;32;20272;-75
2021/12/09 05:29:33;;;;;;;10.43;3.00;;;1.40;99.90;;;;;;7321125;32;20179;-75
2021/12/09 05:33:35;;;;;;;11.57;3.45;;;1.40;99.90;;;;;;7318286;32;20245;-75
2021/12/09 05:37:37;;;;;;;8.32;2.92;;;1.40;99.90;;;;;;7315981;32;20175;-76
2021/12/09 05:41:39;;;;;;;10.68;3.25;;;1.40;99.90;;;;;;7319677;32;20606;-74
2021/12/09 05:45:42;;;;;;;10.90;3.10;;;1.40;99.90;;;;;;7323819;32;20174;-75
2021/12/09 05:49:46;;;;;;;12.02;2.85;;;1.40;99.90;;;;;;7324425;32;20213;-74
2021/12/09 05:53:47;;;;;;;7.47;3.08;;;1.50;99.90;;;;;;7319524;32;20153;-75
2021/12/09 05:57:49;;;;;;;9.82;2.35;;;1.50;99.90;;;;;;7309937;32;20108;-75
2021/12/09 06:01:51;;;;;;;7.20;3.00;;;1.50;99.90;;;;;;7326847;32;20466;-76
2021/12/09 06:05:53;;;;;;;5.32;2.80;;;1.50;99.90;;;;;;7318666;32;20195;-75
2021/12/09 06:09:56;;;;;;;6.60;2.58;;;1.40;99.90;;;;;;7323098;32;20146;-76
2021/12/09 06:13:59;;;;;;;7.80;2.75;;;1.40;99.90;;;;;;7320672;32;20119;-75
2021/12/09 06:18:01;;;;;;;10.27;2.72;;;1.40;99.90;;;;;;7329108;32;20284;-75
2021/12/09 06:22:03;;;;;;;7.90;3.20;;;1.50;99.90;;;;;;7323427;32;20127;-76
2021/12/09 06:26:06;;;;;;;9.30;3.12;;;1.50;99.90;;;;;;7319653;32;20489;-76
2021/12/09 06:30:08;;;;;;;8.85;3.70;;;1.50;99.90;;;;;;7317097;32;20228;-76
2021/12/09 06:34:12;;;;;;;9.35;4.22;;;1.50;99.90;;;;;;7312286;32;20145;-76
2021/12/09 06:38:16;;;;;;;8.82;4.93;;;1.40;99.90;;;;;;7319072;32;20263;-76
2021/12/09 06:42:18;;;;;;;11.98;5.28;;;1.40;99.90;;;;;;7307651;32;20607;-75
2021/12/09 06:46:19;;;;;;;14.10;7.28;;;1.30;99.90;;;;;;7314410;32;20107;-75
2021/12/09 06:50:24;;;;;;;16.02;9.13;;;1.30;99.90;;;;;;7311556;32;20158;-76
2021/12/09 06:54:41;;;;;;;18.45;10.98;;;1.20;99.90;;;;;;7313396;32;20221;-76
2021/12/09 06:58:43;;;;;;;16.42;11.70;;;1.30;99.90;;;;;;7311555;32;20496;-76
2021/12/09 07:02:45;;;;;;;16.83;12.25;;;1.20;99.90;;;;;;7322534;32;20263;-76
2021/12/09 07:06:47;;;;;;;18.50;12.63;;;1.40;99.90;;;;;;7322836;32;20239;-75
2021/12/09 07:10:49;;;;;;;19.62;13.38;;;1.30;99.90;;;;;;7324818;32;20134;-75
2021/12/09 07:14:51;;;;;;;19.90;12.73;;;1.30;99.90;;;;;;7322383;32;20497;-75
2021/12/09 07:18:53;;;;;;;25.45;13.80;;;1.30;99.90;;;;;;7313003;32;20132;-75
2021/12/09 07:22:55;;;;;;;19.70;13.40;;;1.20;99.90;;;;;;7306499;32;20472;-75
2021/12/09 07:26:57;;;;;;;17.95;11.75;;;1.20;99.90;;;;;;7306747;32;20416;-75
2021/12/09 07:30:59;;;;;;;18.48;11.05;;;1.20;99.90;;;;;;7312459;32;20324;-76
2021/12/09 07:35:02;;;;;;;15.52;7.95;;;1.30;99.90;;;;;;7309206;32;20630;-75
2021/12/09 07:39:04;;;;;;;14.40;7.68;;;1.40;99.90;;;;;;7318656;32;20111;-75
2021/12/09 07:43:06;;;;;;;11.88;7.12;;;1.40;99.90;;;;;;7317363;32;20108;-75
2021/12/09 07:47:08;;;;;;;13.62;7.07;;;1.40;99.90;;;;;;7317960;32;20115;-76
2021/12/09 07:51:09;;;;;;;12.88;5.95;;;1.40;99.90;;;;;;7320733;32;20170;-75
2021/12/09 07:55:12;;;;;;;12.37;5.95;;;1.30;99.90;;;;;;7320110;32;20544;-76
2021/12/09 07:59:14;;;;;;;12.60;5.72;;;1.30;99.90;;;;;;7318514;32;20389;-75
2021/12/09 08:03:16;;;;;;;9.93;4.93;;;1.40;99.90;;;;;;7313078;32;20134;-74
2021/12/09 08:07:18;;;;;;;16.90;4.62;;;1.30;99.90;;;;;;7321231;32;20580;-73
2021/12/09 08:11:22;;;;;;;9.90;4.30;;;1.30;99.90;;;;;;7313211;32;20323;-74
2021/12/09 08:15:26;;;;;;;11.20;4.45;;;1.30;99.90;;;;;;7311466;32;20142;-74
2021/12/09 08:19:28;;;;;;;13.90;4.60;;;1.30;99.90;;;;;;7319321;32;20195;-74
2021/12/09 08:23:30;;;;;;;15.65;4.85;;;1.40;99.90;;;;;;7309548;32;20127;-75
2021/12/09 08:27:32;;;;;;;6.93;3.35;;;1.50;99.90;;;;;;7303744;32;20240;-74
2021/12/09 08:31:34;;;;;;;15.57;4.82;;;1.60;99.90;;;;;;7324144;32;20147;-76
2021/12/09 08:35:45;;;;;;;12.05;4.22;;;1.70;99.90;;;;;;7317049;32;20171;-74
2021/12/09 08:39:47;;;;;;;9.77;3.58;;;1.70;99.90;;;;;;7317597;32;20162;-74
2021/12/09 08:43:49;;;;;;;11.73;3.92;;;1.70;99.90;;;;;;7320529;32;20854;-75
2021/12/09 08:47:51;;;;;;;14.10;4.40;;;1.70;99.90;;;;;;7311096;32;20271;-75
2021/12/09 08:51:52;;;;;;;11.52;4.15;;;1.80;99.90;;;;;;7309206;32;20129;-76
2021/12/09 08:55:54;;;;;;;12.88;4.72;;;2.00;99.90;;;;;;7302983;32;20108;-75
2021/12/09 08:59:56;;;;;;;9.40;3.75;;;1.90;99.90;;;;;;7330046;32;20112;-74
2021/12/09 09:03:59;;;;;;;9.00;4.50;;;2.00;99.90;;;;;;7326792;32;20131;-74
2021/12/09 09:08:03;;;;;;;9.73;3.95;;;2.10;99.90;;;;;;7323718;32;20243;-74
2021/12/09 09:12:20;;;;;;;11.02;3.67;;;2.30;99.90;;;;;;7323001;32;20261;-82
2021/12/09 09:16:22;;;;;;;8.80;3.47;;;2.30;99.90;;;;;;7322324;32;20279;-78
2021/12/09 09:20:27;;;;;;;9.88;4.53;;;2.30;99.90;;;;;;7327525;32;20116;-76
2021/12/09 09:24:45;;;;;;;15.35;3.97;;;2.40;99.90;;;;;;7328868;32;20194;-82
2021/12/09 09:28:47;;;;;;;12.02;4.18;;;2.50;99.90;;;;;;7320174;32;20129;-77
2021/12/09 09:32:50;;;;;;;12.68;3.92;;;2.70;99.90;;;;;;7310318;32;20166;-75
2021/12/09 09:36:52;;;;;;;13.35;4.53;;;3.00;99.90;;;;;;7293180;26;20412;-64
2021/12/09 09:41:09;;;;;;;8.95;4.10;;;3.20;99.90;;;;;;7270056;32;20199;-58
2021/12/09 09:45:13;;;;;;;9.47;4.33;;;3.40;99.90;;;;;;7273451;32;20490;-58
2021/12/09 09:49:21;;;;;;;10.90;4.20;;;3.60;99.90;;;;;;7268320;32;20756;-64
2021/12/09 09:53:27;;;;;;;11.02;4.12;;;3.70;99.90;;;;;;7270973;32;20127;-60
2021/12/09 09:57:29;;;;;;;8.57;3.37;;;3.90;99.90;;;;;;7261088;32;20108;-58
2021/12/09 10:01:35;;;;;;;11.12;3.95;;;4.10;99.90;;;;;;7250569;32;20160;-58
2021/12/09 10:05:38;;;;;;;9.48;3.75;;;4.20;99.90;;;;;;7266483;32;20191;-59
2021/12/09 10:09:41;;;;;;;11.25;3.85;;;4.30;99.90;;;;;;7265816;32;20223;-68
2021/12/09 10:13:44;;;;;;;11.65;4.18;;;4.30;99.90;;;;;;7266639;32;20606;-60
2021/12/09 10:17:47;;;;;;;10.68;4.07;;;4.40;99.90;;;;;;7249854;32;20108;-60
2021/12/09 10:22:23;;;;;;;11.80;4.03;;;4.30;99.90;;;;;;7259157;32;20191;-58
2021/12/09 10:26:40;;;;;;;8.65;3.70;;;4.50;99.90;;;;;;7264356;32;20341;-65
2021/12/09 10:30:42;;;;;;;10.00;3.58;;;4.50;99.90;;;;;;7269816;32;20535;-60
2021/12/09 10:34:46;;;;;;;7.85;3.97;;;4.60;99.90;;;;;;7258756;32;20116;-59
2021/12/09 10:38:48;;;;;;;12.25;4.05;;;4.60;99.90;;;;;;7265049;32;20164;-66
2021/12/09 10:42:58;;;;;;;8.93;4.40;;;4.60;99.90;;;;;;7271799;32;20138;-59
2021/12/09 10:47:10;;;;;;;11.63;4.60;;;4.70;99.90;;;;;;7275948;32;20112;-58
2021/12/09 10:51:25;;;;;;;11.02;4.50;;;4.70;99.90;;;;;;7272615;32;20112;-66
2021/12/09 10:55:34;;;;;;;10.60;3.80;;;4.70;99.90;;;;;;7266223;32;20528;-59
2021/12/09 10:59:36;;;;;;;15.35;4.85;;;4.80;99.90;;;;;;7268465;32;20646;-59
2021/12/09 11:03:43;;;;;;;11.88;4.12;;;4.70;99.90;;;;;;7275284;32;20112;-66
2021/12/09 11:07:45;;;;;;;11.57;4.20;;;4.70;99.90;;;;;;7273280;32;20272;-62
2021/12/09 11:11:48;;;;;;;9.45;4.47;;;4.70;99.90;;;;;;7276007;32;20146;-58
2021/12/09 11:15:54;;;;;;;11.55;5.00;;;4.70;99.90;;;;;;7271606;32;20120;-59
2021/12/09 11:19:57;;;;;;;10.60;4.17;;;4.70;99.90;;;;;;7268198;32;20112;-58
2021/12/09 11:24:14;;;;;;;13.25;4.70;;;4.70;99.90;;;;;;7272223;32;20140;-67
2021/12/09 11:28:16;;;;;;;10.07;5.28;;;4.60;99.90;;;;;;7271404;32;20479;-58
2021/12/09 11:36:45;;;;;;;8.70;4.60;;;4.50;99.90;;;;;;7275341;32;20116;-65
2021/12/09 11:40:51;;;;;;;13.35;5.70;;;4.50;99.90;;;;;;7265091;32;20113;-66
2021/12/09 11:44:54;;;;;;;11.17;4.67;;;4.60;99.90;;;;;;7272308;32;20733;-61
2021/12/09 11:48:55;;;;;;;10.60;4.53;;;4.70;99.90;;;;;;7275053;32;20676;-59
2021/12/09 11:53:01;;;;;;;10.13;4.68;;;4.70;99.90;;;;;;7271794;32;20685;-59
2021/12/09 11:57:28;;;;;;;16.15;5.75;;;4.70;99.90;;;;;;7267222;32;20219;-59
2021/12/09 12:11:27;;;;;;;9.63;4.65;;;4.70;99.90;;;;;;7271435;32;20524;-58
2021/12/09 12:15:46;;;;;;;13.00;4.55;;;4.90;99.90;;;;;;7270240;32;20131;-58
2021/12/09 12:25:29;;;;;;;13.70;4.47;;;4.80;99.90;;;;;;7270045;32;20203;-58
2021/12/09 12:47:08;;;;;;;11.45;3.60;;;5.00;99.90;;;;;;7271904;32;20127;-59
2021/12/09 12:51:20;;;;;;;6.82;3.20;;;5.00;99.90;;;;;;7265071;32;20486;-60
2021/12/09 12:55:26;;;;;;;10.07;3.78;;;4.90;99.90;;;;;;7269774;32;20127;-60
2021/12/09 12:59:39;;;;;;;6.45;2.83;;;4.90;99.90;;;;;;7267468;32;20737;-62
2021/12/09 13:03:47;;;;;;;8.55;3.00;;;4.90;99.90;;;;;;7259952;32;20168;-62
2021/12/09 13:08:46;;;;;;;8.07;2.47;;;5.00;99.90;;;;;;7262549;32;20104;-59
2021/12/09 13:12:39;;;;;;;8.35;2.67;;;4.90;99.90;;;;;;7249543;32;20109;-57
2021/12/09 13:17:05;;;;;;;5.90;2.40;;;4.90;99.90;;;;;;7262667;32;20104;-64
2021/12/09 13:21:37;;;;;;;9.27;2.87;;;4.90;99.90;;;;;;7262877;32;21852;-65
2021/12/09 13:26:25;;;;;;;8.27;2.37;;;4.80;99.90;;;;;;7261959;32;20184;-66
2021/12/09 13:35:05;;;;;;;8.90;3.00;;;4.90;99.90;;;;;;7261533;32;20135;-58
2021/12/09 13:39:22;;;;;;;6.43;2.80;;;4.90;99.90;;;;;;7259815;32;20723;-63
2021/12/09 13:47:57;;;;;;;7.62;2.25;;;4.90;99.90;;;;;;7247148;32;20164;-60
2021/12/09 13:54:08;;;;;;;9.30;2.70;;;4.80;99.90;;;;;;7265160;32;20100;-58
2021/12/09 13:56:33;;;;;;;5.82;2.30;;;4.80;99.90;;;;;;7264736;32;20162;-58
2021/12/09 14:00:45;;;;;;;7.68;2.83;;;4.70;99.90;;;;;;7269431;32;20217;-65
2021/12/09 14:04:47;;;;;;;8.48;2.90;;;4.70;99.90;;;;;;7267278;32;20163;-57
2021/12/09 14:08:55;;;;;;;9.98;2.90;;;4.60;99.90;;;;;;7265303;32;20228;-57
2021/12/09 14:13:17;;;;;;;7.65;3.12;;;4.60;99.90;;;;;;7262906;32;20127;-66
2021/12/09 14:17:23;;;;;;;9.88;2.78;;;4.60;99.90;;;;;;7268271;32;20515;-64
2021/12/09 14:21:26;;;;;;;11.53;3.73;;;4.80;99.90;;;;;;7268959;32;20216;-58
2021/12/09 14:25:32;;;;;;;7.97;3.70;;;4.50;99.90;;;;;;7263577;32;20222;-57
2021/12/09 14:29:34;;;;;;;8.55;3.60;;;4.50;99.90;;;;;;7266746;32;20238;-57
2021/12/09 14:33:36;;;;;;;9.75;3.42;;;4.60;99.90;;;;;;7265758;32;20133;-57
2021/12/09 14:37:40;;;;;;;8.07;4.25;;;4.50;99.90;;;;;;7265440;32;20124;-65
2021/12/09 14:41:43;;;;;;;9.13;4.07;;;4.40;99.90;;;;;;7250989;32;20229;-60
2021/12/09 14:45:56;;;;;;;9.07;4.07;;;4.50;99.90;;;;;;7265556;32;20608;-56
2021/12/09 14:50:06;;;;;;;6.10;3.65;;;4.40;99.90;;;;;;7270911;32;20167;-58
2021/12/09 14:54:10;;;;;;;7.65;2.92;;;4.40;99.90;;;;;;7256779;32;20112;-57
2021/12/09 14:58:22;;;;;;;6.35;3.28;;;4.50;99.90;;;;;;7263134;32;20553;-58
2021/12/09 15:02:36;;;;;;;6.45;3.45;;;4.50;99.90;;;;;;7262734;32;20512;-58
2021/12/09 15:06:39;;;;;;;7.00;3.47;;;4.40;99.90;;;;;;7263411;32;20553;-58
2021/12/09 15:10:41;;;;;;;10.77;3.72;;;4.30;99.90;;;;;;7264719;32;20112;-56
2021/12/09 15:14:43;;;;;;;10.20;3.97;;;4.40;99.90;;;;;;7260553;32;20137;-57
2021/12/09 15:18:45;;;;;;;7.85;3.80;;;4.40;99.90;;;;;;7260960;32;20333;-57
2021/12/09 15:23:14;;;;;;;8.60;3.75;;;4.30;99.90;;;;;;7262137;32;20127;-58
2021/12/09 15:27:18;;;;;;;5.20;3.58;;;4.30;99.90;;;;;;7266490;32;20120;-58
2021/12/09 15:31:22;;;;;;;7.47;3.87;;;4.30;99.90;;;;;;7254635;32;20261;-57
2021/12/09 15:35:24;;;;;;;7.53;4.40;;;4.30;99.90;;;;;;7262627;32;20627;-57
2021/12/09 15:39:35;;;;;;;7.85;3.97;;;4.30;99.90;;;;;;7252864;32;20202;-58
2021/12/09 15:43:37;;;;;;;6.93;4.18;;;4.20;99.90;;;;;;7264611;32;20101;-57
2021/12/09 15:47:39;;;;;;;7.80;4.10;;;4.20;99.90;;;;;;7263814;32;20834;-57
2021/12/09 15:51:43;;;;;;;7.22;4.82;;;4.20;99.90;;;;;;7263668;32;20141;-59
2021/12/09 15:55:47;;;;;;;7.80;4.12;;;4.30;99.90;;;;;;7260776;32;20218;-57
2021/12/09 15:59:50;;;;;;;8.05;3.95;;;4.20;99.90;;;;;;7264787;32;20150;-58
2021/12/09 16:03:51;;;;;;;5.75;3.80;;;4.10;99.90;;;;;;7264736;32;20135;-58
2021/12/09 16:07:53;;;;;;;8.68;3.85;;;4.10;99.90;;;;;;7265733;32;20143;-57
2021/12/09 16:11:59;;;;;;;7.35;3.92;;;4.20;99.90;;;;;;7266662;32;20218;-58
2021/12/09 16:16:06;;;;;;;10.47;3.67;;;4.20;99.90;;;;;;7266230;32;20191;-57
2021/12/09 16:20:11;;;;;;;6.30;3.17;;;4.30;99.90;;;;;;7259466;32;20323;-57
2021/12/09 16:24:15;;;;;;;8.23;3.33;;;4.40;99.90;;;;;;7263257;32;20183;-58
2021/12/09 16:28:17;;;;;;;8.65;3.72;;;4.40;99.90;;;;;;7260348;32;20581;-57
2021/12/09 16:32:19;;;;;;;12.18;3.78;;;4.30;99.90;;;;;;7249738;32;20104;-57
2021/12/09 16:36:21;;;;;;;8.07;3.55;;;4.40;99.90;;;;;;7260851;32;20142;-57
2021/12/09 16:40:32;;;;;;;7.65;3.25;;;4.40;99.90;;;;;;7263490;32;20108;-57
2021/12/09 16:44:34;;;;;;;6.28;3.42;;;4.40;99.90;;;;;;7260885;32;20227;-57
2021/12/09 16:48:38;;;;;;;5.55;2.87;;;4.60;99.90;;;;;;7261209;32;20123;-58
2021/12/09 16:52:40;;;;;;;6.70;3.40;;;4.50;99.90;;;;;;7261032;32;20131;-57
2021/12/09 17:00:54;;;;;;;13.20;3.72;;;4.40;99.90;;;;;;7260828;32;20576;-56
2021/12/09 17:04:56;;;;;;;10.45;3.67;;;4.50;99.90;;;;;;7261678;32;20127;-56
2021/12/09 17:09:03;;;;;;;6.50;3.85;;;4.50;99.90;;;;;;7261292;32;20266;-57
2021/12/09 17:13:05;;;;;;;8.00;3.75;;;4.60;99.90;;;;;;7255098;32;20221;-57
2021/12/09 17:17:07;;;;;;;10.65;4.30;;;4.60;99.90;;;;;;7266367;32;20146;-57
2021/12/09 17:21:10;;;;;;;9.18;4.07;;;4.50;99.90;;;;;;7274424;32;20203;-58
2021/12/09 17:25:14;;;;;;;9.15;4.80;;;4.50;99.90;;;;;;7276899;32;20133;-58
2021/12/09 17:29:18;;;;;;;10.00;4.20;;;4.60;99.90;;;;;;7272249;32;20742;-58
2021/12/09 17:33:27;;;;;;;6.53;3.10;;;4.50;99.90;;;;;;7277919;32;20499;-58
2021/12/09 17:37:28;;;;;;;6.53;3.65;;;4.40;99.90;;;;;;7270062;32;20667;-59
2021/12/09 17:41:33;;;;;;;10.18;4.00;;;4.40;99.90;;;;;;7272062;32;20541;-59
2021/12/09 17:45:35;;;;;;;8.35;4.28;;;4.40;99.90;;;;;;7275982;32;20115;-56
2021/12/09 17:49:40;;;;;;;8.48;4.05;;;4.40;99.90;;;;;;7266077;32;20112;-57
2021/12/09 17:53:42;;;;;;;11.43;5.07;;;4.40;99.90;;;;;;7256903;32;20139;-59
2021/12/09 17:57:44;;;;;;;9.68;4.85;;;4.40;99.90;;;;;;7244504;32;20262;-57
2021/12/09 18:01:45;;;;;;;7.28;3.90;;;4.30;99.90;;;;;;7261134;32;20294;-57
2021/12/09 18:05:55;;;;;;;9.90;4.72;;;4.40;99.90;;;;;;7277988;32;20199;-57
2021/12/09 18:09:57;;;;;;;9.85;5.28;;;4.30;99.90;;;;;;7270709;32;20189;-57
2021/12/09 18:13:59;;;;;;;9.27;4.75;;;4.30;99.90;;;;;;7269169;32;20465;-60
2021/12/09 18:18:03;;;;;;;10.98;5.28;;;4.30;99.90;;;;;;7270269;32;20147;-57
2021/12/09 18:22:05;;;;;;;8.40;5.20;;;4.20;99.90;;;;;;7268383;32;20132;-58
2021/12/09 18:26:07;;;;;;;7.62;4.87;;;4.30;99.90;;;;;;7276297;32;20544;-59
2021/12/09 18:30:30;;;;;;;6.78;4.68;;;4.10;99.90;;;;;;7272889;32;20238;-59
2021/12/09 18:34:34;;;;;;;7.12;4.53;;;4.30;99.90;;;;;;7275257;32;20151;-57
2021/12/09 18:38:35;;;;;;;12.50;5.37;;;4.20;99.90;;;;;;7272859;32;20223;-59
2021/12/09 18:42:53;;;;;;;5.93;4.03;;;4.20;99.90;;;;;;7266267;32;20206;-58
2021/12/09 18:46:55;;;;;;;8.98;4.00;;;4.30;99.90;;;;;;7273917;32;20202;-56
2021/12/09 18:50:59;;;;;;;7.93;4.43;;;4.40;99.90;;;;;;7274673;32;20211;-58
2021/12/09 18:55:11;;;;;;;9.07;4.53;;;4.30;99.90;;;;;;7270829;32;20096;-58
2021/12/09 18:59:13;;;;;;;6.87;4.45;;;4.40;99.90;;;;;;7267012;32;20151;-56
2021/12/09 19:03:15;;;;;;;7.00;3.92;;;4.20;99.90;;;;;;7269301;32;20233;-57
2021/12/09 19:07:16;;;;;;;9.30;5.12;;;4.30;99.90;;;;;;7265715;32;20611;-59
2021/12/09 19:11:20;;;;;;;6.18;3.92;;;4.30;99.90;;;;;;7268633;32;21225;-59
2021/12/09 19:15:24;;;;;;;9.68;4.20;;;4.30;99.90;;;;;;7272692;32;20157;-58
2021/12/09 19:19:27;;;;;;;9.95;4.28;;;4.30;99.90;;;;;;7274801;32;20203;-58
2021/12/09 19:23:29;;;;;;;8.57;3.90;;;4.20;99.90;;;;;;7270042;32;20200;-59
2021/12/09 19:32:57;;;;;;;9.35;4.57;;;4.30;99.90;;;;;;7261572;32;20649;-57
2021/12/09 19:36:59;;;;;;;6.15;4.40;;;4.20;99.90;;;;;;7265799;32;20146;-54
2021/12/09 19:41:05;;;;;;;9.23;4.43;;;4.30;99.90;;;;;;7271571;32;20104;-57
2021/12/09 19:45:09;;;;;;;5.47;3.95;;;4.30;99.90;;;;;;7273095;32;20327;-58
2021/12/09 19:49:11;;;;;;;5.72;4.07;;;4.30;99.90;;;;;;7267253;32;20108;-57
2021/12/09 19:53:13;;;;;;;7.40;4.28;;;4.40;99.90;;;;;;7270776;32;20116;-57
2021/12/09 19:57:16;;;;;;;10.48;4.82;;;4.40;99.90;;;;;;7270997;32;20130;-58
2021/12/09 20:01:18;;;;;;;9.75;5.25;;;4.20;99.90;;;;;;7273257;32;20112;-58
2021/12/09 20:05:21;;;;;;;9.85;5.20;;;4.10;99.90;;;;;;7270713;32;20270;-57
2021/12/09 20:09:24;;;;;;;8.68;4.93;;;4.10;99.90;;;;;;7272386;32;20635;-58
2021/12/09 20:13:25;;;;;;;7.30;5.05;;;4.20;99.90;;;;;;7271235;32;20214;-60
2021/12/09 20:17:28;;;;;;;7.43;4.40;;;4.10;99.90;;;;;;7270543;32;20183;-59
2021/12/09 20:21:32;;;;;;;7.50;5.25;;;4.10;99.90;;;;;;7270902;32;20202;-59
2021/12/09 20:25:34;;;;;;;10.57;5.57;;;4.10;99.90;;;;;;7268190;32;20525;-58
2021/12/09 20:29:35;;;;;;;10.45;4.85;;;4.00;99.90;;;;;;7272665;32;20648;-57
2021/12/09 20:33:38;;;;;;;8.18;4.72;;;4.00;99.90;;;;;;7246195;32;20576;-59
2021/12/09 20:37:40;;;;;;;7.30;4.57;;;4.00;99.90;;;;;;7250834;32;20602;-59
2021/12/09 20:41:42;;;;;;;8.63;5.00;;;4.00;99.90;;;;;;7267879;32;20112;-59
2021/12/09 20:45:44;;;;;;;6.12;4.50;;;3.90;99.90;;;;;;7267978;32;20513;-58
2021/12/09 20:49:46;;;;;;;7.15;4.55;;;3.90;99.90;;;;;;7263900;32;20194;-58
2021/12/09 20:53:48;;;;;;;10.45;5.25;;;3.90;99.90;;;;;;7266410;32;20150;-57
2021/12/09 20:57:50;;;;;;;7.53;4.75;;;3.90;99.90;;;;;;7269954;32;20639;-59
2021/12/09 21:01:52;;;;;;;7.93;4.78;;;3.90;99.90;;;;;;7272322;32;20111;-59
2021/12/09 21:05:55;;;;;;;7.30;4.93;;;3.80;99.90;;;;;;7271267;32;20720;-57
2021/12/09 21:09:57;;;;;;;7.75;4.50;;;3.90;99.90;;;;;;7273055;32;20108;-58
2021/12/09 21:14:01;;;;;;;8.45;4.95;;;4.10;99.90;;;;;;7270783;32;20540;-58
2021/12/09 21:18:05;;;;;;;7.30;5.28;;;4.00;99.90;;;;;;7272154;32;20127;-58
2021/12/09 21:22:07;;;;;;;9.23;5.35;;;3.90;99.90;;;;;;7271342;32;20456;-58
2021/12/09 21:26:09;;;;;;;7.90;4.80;;;3.80;99.90;;;;;;7264603;32;20105;-59
2021/12/09 21:30:13;;;;;;;7.93;5.28;;;3.90;99.90;;;;;;7269511;32;20693;-58
2021/12/09 21:34:22;;;;;;;9.15;5.15;;;3.90;99.90;;;;;;7270183;32;20504;-57
2021/12/09 21:38:24;;;;;;;8.77;5.35;;;3.90;99.90;;;;;;7271378;32;20112;-58
2021/12/09 21:42:25;;;;;;;9.13;5.10;;;3.90;99.90;;;;;;7270632;32;20284;-57
2021/12/09 21:46:27;;;;;;;8.07;5.75;;;3.90;99.90;;;;;;7258376;32;20591;-56
2021/12/09 21:50:30;;;;;;;9.55;5.70;;;3.80;99.90;;;;;;7260690;32;20172;-58
2021/12/09 21:54:32;;;;;;;11.30;5.68;;;3.80;99.90;;;;;;7253158;32;20112;-57
2021/12/09 21:58:33;;;;;;;7.97;5.47;;;3.90;99.90;;;;;;7267347;32;20132;-55
2021/12/09 22:02:36;;;;;;;8.38;6.15;;;3.90;99.90;;;;;;7270995;32;20132;-58
2021/12/09 22:06:39;;;;;;;10.73;6.75;;;3.90;99.90;;;;;;7250973;32;20115;-57
2021/12/09 22:10:41;;;;;;;12.45;7.20;;;3.90;99.90;;;;;;7269571;32;20126;-57
2021/12/09 22:14:43;;;;;;;12.57;6.80;;;3.80;99.90;;;;;;7266761;32;20131;-58
2021/12/09 22:18:50;;;;;;;11.90;6.78;;;3.80;99.90;;;;;;7271248;32;20120;-57